Ana Sayfa
METAR-TAF:

METAR-TAF

Havaalanları :

Waterville Robert LaFleur Airport

Waterville, Maine, Amerika Birleşik Devletleri

Enlem: 44-32N, Boylam: 069-41W, yükseklik: 101 m

Güncel hava durumu gözlemi

Rapor saat 06:56 UTC de 38 dakika önce yapıldı.
Sakin rüzgar
Sıcaklık 15°C
Nem 94%
Basınç 1012 hPa
Görüş mesafesi: 16.1 km
Açık gökyüzü

METAR: KWVL 240656Z AUTO 00000KT 10SM CLR 15/14 A2988 RMK AO2 SLP144 T01500144

Saat: 03:34 (07:34 UTC)


TAF: eksik

4.000'den fazla havaalanı için hava durumu gözlemleri ve tahminleri (METAR ve TAF raporları).

Kullanılabilir istasyonlar harita üzerinde sarı ve kırmızı noktalarla gösterilir.

İstasyonun adını görmek için fareyi noktanın üzerinde gezdirin.

Sonrasında hava gözlem ve tahminlerini görmek için tıklayın.

Haritayı değiştirmek için: yaklaştırmak için siyah artı işaretli yeşil düğmeye ve uzaklaştırmak için de eksi işaretli düğmeye hızla tıklayın; bitişik haritalar için yeşil okları kullanın.


METAR-TAF: